sensor_id;sensor_type;location;lat;lon;timestamp;pressure;altitude;pressure_sealevel;temperature;humidity
42105;BME280;70664;51.472;5.712;2023-10-19T00:00:40;99142.47;;;15.71;65.34
42105;BME280;70664;51.472;5.712;2023-10-19T00:03:11;99146.81;;;15.71;65.73
42105;BME280;70664;51.472;5.712;2023-10-19T00:05:38;99139.88;;;15.71;65.14
42105;BME280;70664;51.472;5.712;2023-10-19T00:08:06;99141.63;;;15.71;65.48
42105;BME280;70664;51.472;5.712;2023-10-19T00:10:54;99147.66;;;15.71;65.28
42105;BME280;70664;51.472;5.712;2023-10-19T00:13:40;99138.19;;;15.70;65.27
42105;BME280;70664;51.472;5.712;2023-10-19T00:16:09;99158.91;;;15.70;65.30
42105;BME280;70664;51.472;5.712;2023-10-19T00:18:43;99139.09;;;15.69;65.23
42105;BME280;70664;51.472;5.712;2023-10-19T00:21:09;99158.09;;;15.70;65.29
42105;BME280;70664;51.472;5.712;2023-10-19T00:23:46;99160.72;;;15.68;65.76
42105;BME280;70664;51.472;5.712;2023-10-19T00:26:16;99157.31;;;15.68;65.55
42105;BME280;70664;51.472;5.712;2023-10-19T00:28:46;99153.03;;;15.67;65.55
42105;BME280;70664;51.472;5.712;2023-10-19T00:31:18;99155.69;;;15.65;65.51
42105;BME280;70664;51.472;5.712;2023-10-19T00:33:46;99166.81;;;15.67;65.63
42105;BME280;70664;51.472;5.712;2023-10-19T00:36:12;99171.19;;;15.67;65.58
42105;BME280;70664;51.472;5.712;2023-10-19T00:38:42;99159.00;;;15.69;65.49
42105;BME280;70664;51.472;5.712;2023-10-19T00:41:24;99159.06;;;15.67;65.51
42105;BME280;70664;51.472;5.712;2023-10-19T00:43:58;99163.41;;;15.67;65.40
42105;BME280;70664;51.472;5.712;2023-10-19T00:46:36;99161.78;;;15.64;65.60
42105;BME280;70664;51.472;5.712;2023-10-19T00:49:05;99156.53;;;15.66;65.68
42105;BME280;70664;51.472;5.712;2023-10-19T00:51:45;99151.41;;;15.64;65.54
42105;BME280;70664;51.472;5.712;2023-10-19T00:54:25;99154.88;;;15.65;65.25
42105;BME280;70664;51.472;5.712;2023-10-19T00:57:07;99157.38;;;15.66;65.44
42105;BME280;70664;51.472;5.712;2023-10-19T00:59:41;99151.38;;;15.66;65.66
42105;BME280;70664;51.472;5.712;2023-10-19T01:02:16;99140.16;;;15.65;65.51
42105;BME280;70664;51.472;5.712;2023-10-19T01:04:48;99146.22;;;15.64;65.48
42105;BME280;70664;51.472;5.712;2023-10-19T01:07:28;99142.72;;;15.65;65.64
42105;BME280;70664;51.472;5.712;2023-10-19T01:10:01;99132.47;;;15.64;65.48
42105;BME280;70664;51.472;5.712;2023-10-19T01:12:31;99142.81;;;15.64;65.33
42105;BME280;70664;51.472;5.712;2023-10-19T01:15:11;99146.31;;;15.63;65.46
42105;BME280;70664;51.472;5.712;2023-10-19T01:17:54;99145.47;;;15.62;65.65
42105;BME280;70664;51.472;5.712;2023-10-19T01:20:24;99145.47;;;15.62;65.46
42105;BME280;70664;51.472;5.712;2023-10-19T01:23:03;99148.00;;;15.64;65.44
42105;BME280;70664;51.472;5.712;2023-10-19T01:25:49;99150.59;;;15.64;65.42
42105;BME280;70664;51.472;5.712;2023-10-19T01:28:18;99141.97;;;15.63;65.70
42105;BME280;70664;51.472;5.712;2023-10-19T01:30:45;99151.41;;;15.64;65.67
42105;BME280;70664;51.472;5.712;2023-10-19T01:33:11;99148.00;;;15.64;65.56
42105;BME280;70664;51.472;5.712;2023-10-19T01:35:42;99132.50;;;15.62;65.65
42105;BME280;70664;51.472;5.712;2023-10-19T01:38:30;99134.28;;;15.62;65.52
42105;BME280;70664;51.472;5.712;2023-10-19T01:41:02;99134.28;;;15.62;65.73
42105;BME280;70664;51.472;5.712;2023-10-19T01:43:31;99127.41;;;15.61;65.55
42105;BME280;70664;51.472;5.712;2023-10-19T01:45:58;99130.91;;;15.60;65.56
42105;BME280;70664;51.472;5.712;2023-10-19T01:48:29;99126.59;;;15.60;65.57
42105;BME280;70664;51.472;5.712;2023-10-19T01:51:06;99128.31;;;15.60;65.71
42105;BME280;70664;51.472;5.712;2023-10-19T01:53:33;99127.50;;;15.59;65.94
42105;BME280;70664;51.472;5.712;2023-10-19T01:56:00;99126.63;;;15.58;65.79
42105;BME280;70664;51.472;5.712;2023-10-19T01:58:26;99121.41;;;15.60;65.93
42105;BME280;70664;51.472;5.712;2023-10-19T02:00:55;99134.41;;;15.58;65.69
42105;BME280;70664;51.472;5.712;2023-10-19T02:03:22;99127.53;;;15.57;65.81
42105;BME280;70664;51.472;5.712;2023-10-19T02:05:48;99134.41;;;15.58;65.74
42105;BME280;70664;51.472;5.712;2023-10-19T02:08:16;99133.63;;;15.56;65.97
42105;BME280;70664;51.472;5.712;2023-10-19T02:10:49;99130.09;;;15.59;65.68
42105;BME280;70664;51.472;5.712;2023-10-19T02:13:14;99122.31;;;15.59;65.92
42105;BME280;70664;51.472;5.712;2023-10-19T02:15:43;99120.63;;;15.58;65.93
42105;BME280;70664;51.472;5.712;2023-10-19T02:18:09;99124.03;;;15.58;65.56
42105;BME280;70664;51.472;5.712;2023-10-19T02:20:36;99123.13;;;15.60;65.62
42105;BME280;70664;51.472;5.712;2023-10-19T02:23:07;99121.53;;;15.57;65.87
42105;BME280;70664;51.472;5.712;2023-10-19T02:25:34;99117.06;;;15.61;65.46
42105;BME280;70664;51.472;5.712;2023-10-19T02:28:04;99120.56;;;15.60;65.76
42105;BME280;70664;51.472;5.712;2023-10-19T02:30:33;99115.38;;;15.60;65.83
42105;BME280;70664;51.472;5.712;2023-10-19T02:33:01;99118.88;;;15.58;65.58
42105;BME280;70664;51.472;5.712;2023-10-19T02:35:29;99122.38;;;15.57;65.72
42105;BME280;70664;51.472;5.712;2023-10-19T02:37:55;99118.88;;;15.58;65.92
42105;BME280;70664;51.472;5.712;2023-10-19T02:40:21;99116.28;;;15.58;65.81
42105;BME280;70664;51.472;5.712;2023-10-19T02:42:49;99113.69;;;15.58;65.82
42105;BME280;70664;51.472;5.712;2023-10-19T02:45:19;99121.47;;;15.58;65.60
42105;BME280;70664;51.472;5.712;2023-10-19T02:47:46;99111.09;;;15.58;65.78
42105;BME280;70664;51.472;5.712;2023-10-19T02:50:12;99108.59;;;15.57;65.65
42105;BME280;70664;51.472;5.712;2023-10-19T02:52:48;99099.06;;;15.57;65.64
42105;BME280;70664;51.472;5.712;2023-10-19T02:55:14;99099.97;;;15.56;65.87
42105;BME280;70664;51.472;5.712;2023-10-19T02:57:42;99101.63;;;15.57;65.91
42105;BME280;70664;51.472;5.712;2023-10-19T03:00:12;99098.38;;;15.54;66.02
42105;BME280;70664;51.472;5.712;2023-10-19T03:02:46;99093.88;;;15.57;65.97
42105;BME280;70664;51.472;5.712;2023-10-19T03:05:12;99093.88;;;15.57;65.98
42105;BME280;70664;51.472;5.712;2023-10-19T03:07:41;99093.03;;;15.57;65.72
42105;BME280;70664;51.472;5.712;2023-10-19T03:10:11;99100.81;;;15.57;65.90
42105;BME280;70664;51.472;5.712;2023-10-19T03:13:01;99093.94;;;15.56;65.83
42105;BME280;70664;51.472;5.712;2023-10-19T03:15:30;99090.47;;;15.57;65.89
42105;BME280;70664;51.472;5.712;2023-10-19T03:17:56;99085.31;;;15.55;65.95
42105;BME280;70664;51.472;5.712;2023-10-19T03:20:22;99086.09;;;15.57;65.74
42105;BME280;70664;51.472;5.712;2023-10-19T03:22:50;99091.38;;;15.56;65.69
42105;BME280;70664;51.472;5.712;2023-10-19T03:25:16;99087.88;;;15.57;65.75
42105;BME280;70664;51.472;5.712;2023-10-19T03:28:01;99081.81;;;15.56;65.69
42105;BME280;70664;51.472;5.712;2023-10-19T03:30:37;99078.41;;;15.56;65.71
42105;BME280;70664;51.472;5.712;2023-10-19T03:33:08;99075.97;;;15.53;66.05
42105;BME280;70664;51.472;5.712;2023-10-19T03:35:38;99078.41;;;15.56;65.78
42105;BME280;70664;51.472;5.712;2023-10-19T03:38:08;99068.88;;;15.56;65.83
42105;BME280;70664;51.472;5.712;2023-10-19T03:40:42;99069.78;;;15.55;65.88
42105;BME280;70664;51.472;5.712;2023-10-19T03:43:12;99070.63;;;15.56;65.69
42105;BME280;70664;51.472;5.712;2023-10-19T03:45:47;99068.06;;;15.56;65.75
42105;BME280;70664;51.472;5.712;2023-10-19T03:48:20;99067.97;;;15.57;65.69
42105;BME280;70664;51.472;5.712;2023-10-19T03:51:01;99063.69;;;15.56;65.66
42105;BME280;70664;51.472;5.712;2023-10-19T03:53:28;99063.78;;;15.55;65.50
42105;BME280;70664;51.472;5.712;2023-10-19T03:55:54;99053.34;;;15.56;65.66
42105;BME280;70664;51.472;5.712;2023-10-19T03:58:21;99053.34;;;15.56;65.80
42105;BME280;70664;51.472;5.712;2023-10-19T04:00:47;99055.09;;;15.56;66.05
42105;BME280;70664;51.472;5.712;2023-10-19T04:03:16;99056.91;;;15.54;66.00
42105;BME280;70664;51.472;5.712;2023-10-19T04:05:50;99058.50;;;15.56;65.99
42105;BME280;70664;51.472;5.712;2023-10-19T04:08:16;99051.50;;;15.58;65.89
42105;BME280;70664;51.472;5.712;2023-10-19T04:10:51;99057.69;;;15.56;66.00
42105;BME280;70664;51.472;5.712;2023-10-19T04:13:36;99049.06;;;15.55;65.80
42105;BME280;70664;51.472;5.712;2023-10-19T04:16:02;99053.47;;;15.53;65.95
42105;BME280;70664;51.472;5.712;2023-10-19T04:18:28;99053.47;;;15.53;66.11
42105;BME280;70664;51.472;5.712;2023-10-19T04:20:54;99062.00;;;15.55;66.06
42105;BME280;70664;51.472;5.712;2023-10-19T04:23:24;99055.16;;;15.54;65.66
42105;BME280;70664;51.472;5.712;2023-10-19T04:25:56;99059.44;;;15.55;66.12
42105;BME280;70664;51.472;5.712;2023-10-19T04:28:23;99056.84;;;15.55;65.85
42105;BME280;70664;51.472;5.712;2023-10-19T04:31:11;99051.75;;;15.54;66.15
42105;BME280;70664;51.472;5.712;2023-10-19T04:33:40;99054.34;;;15.54;66.01
42105;BME280;70664;51.472;5.712;2023-10-19T04:36:08;99062.16;;;15.52;65.89
42105;BME280;70664;51.472;5.712;2023-10-19T04:38:37;99056.06;;;15.53;66.03
42105;BME280;70664;51.472;5.712;2023-10-19T04:41:07;99054.38;;;15.52;65.77
42105;BME280;70664;51.472;5.712;2023-10-19T04:43:38;99054.47;;;15.51;66.03
42105;BME280;70664;51.472;5.712;2023-10-19T04:46:09;99054.38;;;15.52;66.01
42105;BME280;70664;51.472;5.712;2023-10-19T04:48:38;99056.16;;;15.52;66.00
42105;BME280;70664;51.472;5.712;2023-10-19T04:51:06;99060.41;;;15.53;66.16
42105;BME280;70664;51.472;5.712;2023-10-19T04:53:33;99063.84;;;15.53;66.08
42105;BME280;70664;51.472;5.712;2023-10-19T04:55:59;99058.75;;;15.52;65.96
42105;BME280;70664;51.472;5.712;2023-10-19T04:58:29;99069.91;;;15.52;65.81
42105;BME280;70664;51.472;5.712;2023-10-19T05:00:55;99065.66;;;15.51;66.24
42105;BME280;70664;51.472;5.712;2023-10-19T05:03:25;99065.66;;;15.51;65.84
42105;BME280;70664;51.472;5.712;2023-10-19T05:05:51;99071.69;;;15.52;66.02
42105;BME280;70664;51.472;5.712;2023-10-19T05:08:17;99068.25;;;15.51;65.95
42105;BME280;70664;51.472;5.712;2023-10-19T05:10:43;99072.50;;;15.52;65.88
42105;BME280;70664;51.472;5.712;2023-10-19T05:13:08;99078.41;;;15.56;65.80
42105;BME280;70664;51.472;5.712;2023-10-19T05:15:34;99074.28;;;15.52;65.83
42105;BME280;70664;51.472;5.712;2023-10-19T05:18:01;99076.88;;;15.52;66.12
42105;BME280;70664;51.472;5.712;2023-10-19T05:20:27;99078.53;;;15.53;66.07
42105;BME280;70664;51.472;5.712;2023-10-19T05:22:53;99079.38;;;15.53;65.69
42105;BME280;70664;51.472;5.712;2023-10-19T05:25:19;99084.63;;;15.52;65.73
42105;BME280;70664;51.472;5.712;2023-10-19T05:27:44;99076.00;;;15.51;66.21
42105;BME280;70664;51.472;5.712;2023-10-19T05:30:11;99076.72;;;15.55;65.75
42105;BME280;70664;51.472;5.712;2023-10-19T05:32:38;99081.91;;;15.55;65.59
42105;BME280;70664;51.472;5.712;2023-10-19T05:35:04;99078.53;;;15.53;66.01
42105;BME280;70664;51.472;5.712;2023-10-19T05:37:31;99076.09;;;15.50;66.19
42105;BME280;70664;51.472;5.712;2023-10-19T05:39:57;99075.09;;;15.52;65.79
42105;BME280;70664;51.472;5.712;2023-10-19T05:42:24;99076.88;;;15.52;65.75
42105;BME280;70664;51.472;5.712;2023-10-19T05:44:50;99081.19;;;15.51;66.08
42105;BME280;70664;51.472;5.712;2023-10-19T05:47:17;99085.47;;;15.52;65.72
42105;BME280;70664;51.472;5.712;2023-10-19T05:49:43;99085.53;;;15.51;65.98
42105;BME280;70664;51.472;5.712;2023-10-19T05:52:09;99099.31;;;15.51;65.79
42105;BME280;70664;51.472;5.712;2023-10-19T05:54:36;99092.31;;;15.53;65.87
42105;BME280;70664;51.472;5.712;2023-10-19T05:57:03;99096.69;;;15.53;65.97
42105;BME280;70664;51.472;5.712;2023-10-19T05:59:33;99087.22;;;15.52;65.99
42105;BME280;70664;51.472;5.712;2023-10-19T06:01:59;99100.19;;;15.52;66.14
42105;BME280;70664;51.472;5.712;2023-10-19T06:04:25;99091.63;;;15.50;66.20
42105;BME280;70664;51.472;5.712;2023-10-19T06:06:51;99094.28;;;15.48;66.32
42105;BME280;70664;51.472;5.712;2023-10-19T06:09:17;99094.88;;;15.55;66.15
42105;BME280;70664;51.472;5.712;2023-10-19T06:11:44;99096.03;;;15.48;66.61
42105;BME280;70664;51.472;5.712;2023-10-19T06:14:10;99100.31;;;15.49;66.34
42105;BME280;70664;51.472;5.712;2023-10-19T06:16:36;99099.31;;;15.51;66.73
42105;BME280;70664;51.472;5.712;2023-10-19T06:19:02;99103.81;;;15.48;66.96
42105;BME280;70664;51.472;5.712;2023-10-19T06:21:28;99102.22;;;15.45;67.19
42105;BME280;70664;51.472;5.712;2023-10-19T06:23:55;99099.47;;;15.48;66.89
42105;BME280;70664;51.472;5.712;2023-10-19T06:26:21;99097.84;;;15.46;67.55
42105;BME280;70664;51.472;5.712;2023-10-19T06:28:47;99104.84;;;15.43;67.79
42105;BME280;70664;51.472;5.712;2023-10-19T06:31:13;99105.72;;;15.44;67.56
42105;BME280;70664;51.472;5.712;2023-10-19T06:33:40;99107.22;;;15.48;67.45
42105;BME280;70664;51.472;5.712;2023-10-19T06:36:07;99104.63;;;15.48;67.80
42105;BME280;70664;51.472;5.712;2023-10-19T06:38:33;99106.41;;;15.48;67.63
42105;BME280;70664;51.472;5.712;2023-10-19T06:41:13;99102.03;;;15.48;67.55
42105;BME280;70664;51.472;5.712;2023-10-19T06:43:39;99114.09;;;15.49;67.81
42105;BME280;70664;51.472;5.712;2023-10-19T06:46:06;99106.31;;;15.49;67.79
42105;BME280;70664;51.472;5.712;2023-10-19T06:48:32;99114.94;;;15.50;67.70
42105;BME280;70664;51.472;5.712;2023-10-19T06:50:58;99111.44;;;15.51;67.72
42105;BME280;70664;51.472;5.712;2023-10-19T06:53:26;99114.94;;;15.50;67.83
42105;BME280;70664;51.472;5.712;2023-10-19T06:55:52;99121.03;;;15.49;67.57
42105;BME280;70664;51.472;5.712;2023-10-19T06:58:18;99116.63;;;15.51;67.81
42105;BME280;70664;51.472;5.712;2023-10-19T07:00:47;99115.78;;;15.50;67.64
42105;BME280;70664;51.472;5.712;2023-10-19T07:03:22;99127.81;;;15.51;67.53
42105;BME280;70664;51.472;5.712;2023-10-19T07:05:48;99126.22;;;15.49;67.89
42105;BME280;70664;51.472;5.712;2023-10-19T07:08:15;99133.84;;;15.52;67.84
42105;BME280;70664;51.472;5.712;2023-10-19T07:10:41;99138.03;;;15.54;67.82
42105;BME280;70664;51.472;5.712;2023-10-19T07:13:08;99136.50;;;15.50;67.77
42105;BME280;70664;51.472;5.712;2023-10-19T07:15:34;99147.44;;;15.57;67.82
42105;BME280;70664;51.472;5.712;2023-10-19T07:18:00;99146.84;;;15.50;68.02
42105;BME280;70664;51.472;5.712;2023-10-19T07:20:26;99141.53;;;15.53;67.84
42105;BME280;70664;51.472;5.712;2023-10-19T07:23:02;99145.88;;;15.53;67.28
42105;BME280;70664;51.472;5.712;2023-10-19T07:25:34;99139.81;;;15.54;67.49
42105;BME280;70664;51.472;5.712;2023-10-19T07:28:09;99137.25;;;15.52;67.21
42105;BME280;70664;51.472;5.712;2023-10-19T07:30:37;99146.72;;;15.53;67.31
42105;BME280;70664;51.472;5.712;2023-10-19T07:33:03;99148.53;;;15.51;67.37
42105;BME280;70664;51.472;5.712;2023-10-19T07:35:34;99139.81;;;15.54;67.28
42105;BME280;70664;51.472;5.712;2023-10-19T07:38:03;99132.16;;;15.51;67.42
42105;BME280;70664;51.472;5.712;2023-10-19T07:40:30;99132.84;;;15.54;67.27
42105;BME280;70664;51.472;5.712;2023-10-19T07:42:56;99136.44;;;15.52;67.01
42105;BME280;70664;51.472;5.712;2023-10-19T07:45:22;99132.09;;;15.52;67.31
42105;BME280;70664;51.472;5.712;2023-10-19T07:47:48;99129.50;;;15.52;67.15
42105;BME280;70664;51.472;5.712;2023-10-19T07:50:14;99134.53;;;15.55;67.19
42105;BME280;70664;51.472;5.712;2023-10-19T07:52:44;99132.09;;;15.52;67.56
42105;BME280;70664;51.472;5.712;2023-10-19T07:55:11;99120.91;;;15.52;67.80
42105;BME280;70664;51.472;5.712;2023-10-19T07:57:36;99118.31;;;15.52;67.88
42105;BME280;70664;51.472;5.712;2023-10-19T08:00:03;99120.81;;;15.53;68.05
42105;BME280;70664;51.472;5.712;2023-10-19T08:02:30;99122.44;;;15.56;67.86
42105;BME280;70664;51.472;5.712;2023-10-19T08:04:56;99118.09;;;15.56;67.96
42105;BME280;70664;51.472;5.712;2023-10-19T08:07:22;99113.78;;;15.57;68.02
42105;BME280;70664;51.472;5.712;2023-10-19T08:09:48;99107.69;;;15.58;67.71
42105;BME280;70664;51.472;5.712;2023-10-19T08:12:14;99100.88;;;15.55;68.21
42105;BME280;70664;51.472;5.712;2023-10-19T08:14:40;99106.81;;;15.57;68.02
42105;BME280;70664;51.472;5.712;2023-10-19T08:17:06;99104.22;;;15.57;68.03
42105;BME280;70664;51.472;5.712;2023-10-19T08:19:34;99102.50;;;15.58;67.97
42105;BME280;70664;51.472;5.712;2023-10-19T08:22:01;99108.72;;;15.54;68.14
42105;BME280;70664;51.472;5.712;2023-10-19T08:24:27;99102.63;;;15.55;67.98
42105;BME280;70664;51.472;5.712;2023-10-19T08:26:56;99100.19;;;15.52;68.17
42105;BME280;70664;51.472;5.712;2023-10-19T08:29:22;99106.03;;;15.55;68.02
42105;BME280;70664;51.472;5.712;2023-10-19T08:31:49;99106.03;;;15.55;68.23
42105;BME280;70664;51.472;5.712;2023-10-19T08:34:15;99099.97;;;15.56;68.45
42105;BME280;70664;51.472;5.712;2023-10-19T08:36:41;99105.22;;;15.55;68.55
42105;BME280;70664;51.472;5.712;2023-10-19T08:39:09;99109.50;;;15.56;68.35
42105;BME280;70664;51.472;5.712;2023-10-19T08:41:39;99100.94;;;15.54;68.50
42105;BME280;70664;51.472;5.712;2023-10-19T08:44:07;99099.97;;;15.56;68.16
42105;BME280;70664;51.472;5.712;2023-10-19T08:46:44;99088.63;;;15.59;68.39
42105;BME280;70664;51.472;5.712;2023-10-19T08:49:15;99095.69;;;15.55;68.40
42105;BME280;70664;51.472;5.712;2023-10-19T08:51:46;99084.50;;;15.55;68.72
42105;BME280;70664;51.472;5.712;2023-10-19T08:54:13;99081.81;;;15.56;68.68
42105;BME280;70664;51.472;5.712;2023-10-19T08:56:41;99093.03;;;15.57;68.25
42105;BME280;70664;51.472;5.712;2023-10-19T08:59:08;99094.63;;;15.60;68.83
42105;BME280;70664;51.472;5.712;2023-10-19T09:01:37;99092.19;;;15.56;68.45
42105;BME280;70664;51.472;5.712;2023-10-19T09:04:04;99087.66;;;15.62;68.43
42105;BME280;70664;51.472;5.712;2023-10-19T09:06:34;99083.38;;;15.61;68.55
42105;BME280;70664;51.472;5.712;2023-10-19T09:09:11;99084.22;;;15.61;68.94
42105;BME280;70664;51.472;5.712;2023-10-19T09:11:47;99075.50;;;15.62;68.92
42105;BME280;70664;51.472;5.712;2023-10-19T09:14:30;99075.50;;;15.62;68.76
42105;BME280;70664;51.472;5.712;2023-10-19T09:16:57;99077.41;;;15.58;69.27
42105;BME280;70664;51.472;5.712;2023-10-19T09:19:45;99071.47;;;15.56;69.04
42105;BME280;70664;51.472;5.712;2023-10-19T09:22:14;99071.47;;;15.56;68.95
42105;BME280;70664;51.472;5.712;2023-10-19T09:24:57;99069.78;;;15.55;69.07
42105;BME280;70664;51.472;5.712;2023-10-19T09:27:23;99071.47;;;15.56;69.34
42105;BME280;70664;51.472;5.712;2023-10-19T09:29:49;99065.47;;;15.56;68.84
42105;BME280;70664;51.472;5.712;2023-10-19T09:32:18;99067.16;;;15.57;69.27
42105;BME280;70664;51.472;5.712;2023-10-19T09:34:45;99064.59;;;15.55;69.33
42105;BME280;70664;51.472;5.712;2023-10-19T09:37:15;99073.22;;;15.56;69.19
42105;BME280;70664;51.472;5.712;2023-10-19T09:39:41;99065.47;;;15.56;69.11
42105;BME280;70664;51.472;5.712;2023-10-19T09:42:10;99062.88;;;15.56;69.00
42105;BME280;70664;51.472;5.712;2023-10-19T09:44:45;99068.97;;;15.55;68.85
42105;BME280;70664;51.472;5.712;2023-10-19T09:47:13;99071.59;;;15.53;69.30
42105;BME280;70664;51.472;5.712;2023-10-19T09:49:43;99064.59;;;15.55;69.21
42105;BME280;70664;51.472;5.712;2023-10-19T09:52:11;99076.72;;;15.55;69.64
42105;BME280;70664;51.472;5.712;2023-10-19T09:55:00;99069.88;;;15.54;69.84
42105;BME280;70664;51.472;5.712;2023-10-19T10:00:29;99063.84;;;15.53;70.52
42105;BME280;70664;51.472;5.712;2023-10-19T10:02:57;99063.00;;;15.53;70.69
42105;BME280;70664;51.472;5.712;2023-10-19T10:10:46;99049.63;;;15.62;72.25
42105;BME280;70664;51.472;5.712;2023-10-19T10:15:56;99040.09;;;15.63;72.72
42105;BME280;70664;51.472;5.712;2023-10-19T10:18:27;99043.53;;;15.63;72.88
42105;BME280;70664;51.472;5.712;2023-10-19T10:21:21;99051.88;;;15.70;72.69
42105;BME280;70664;51.472;5.712;2023-10-19T10:23:54;99044.25;;;15.67;72.98
42105;BME280;70664;51.472;5.712;2023-10-19T10:27:13;99057.19;;;15.67;73.17
42105;BME280;70664;51.472;5.712;2023-10-19T10:29:57;99059.69;;;15.68;73.52
42105;BME280;70664;51.472;5.712;2023-10-19T10:32:46;99053.63;;;15.88;73.37
42105;BME280;70664;51.472;5.712;2023-10-19T10:38:08;99050.06;;;15.72;73.84
42105;BME280;70664;51.472;5.712;2023-10-19T10:40:49;99038.81;;;15.71;73.95
42105;BME280;70664;51.472;5.712;2023-10-19T10:43:17;99031.16;;;15.70;73.78
42105;BME280;70664;51.472;5.712;2023-10-19T10:45:44;99037.16;;;15.70;74.00
42105;BME280;70664;51.472;5.712;2023-10-19T10:48:15;99039.81;;;15.69;73.85
42105;BME280;70664;51.472;5.712;2023-10-19T10:50:41;99044.09;;;15.70;74.38
42105;BME280;70664;51.472;5.712;2023-10-19T10:53:10;99042.41;;;15.69;74.03
42105;BME280;70664;51.472;5.712;2023-10-19T10:55:37;99050.09;;;15.70;74.10
42105;BME280;70664;51.472;5.712;2023-10-19T10:58:05;99063.91;;;15.71;74.10
42105;BME280;70664;51.472;5.712;2023-10-19T11:00:30;99063.00;;;15.72;74.42
42105;BME280;70664;51.472;5.712;2023-10-19T11:03:06;99059.34;;;15.76;74.38
42105;BME280;70664;51.472;5.712;2023-10-19T11:05:36;99053.41;;;15.74;74.52
42105;BME280;70664;51.472;5.712;2023-10-19T11:08:15;99051.66;;;15.75;74.36
42105;BME280;70664;51.472;5.712;2023-10-19T11:10:44;99040.47;;;15.74;74.38
42105;BME280;70664;51.472;5.712;2023-10-19T11:13:18;99042.13;;;15.75;74.12
42105;BME280;70664;51.472;5.712;2023-10-19T11:15:52;99029.19;;;15.75;74.18
42105;BME280;70664;51.472;5.712;2023-10-19T11:18:33;99020.56;;;15.75;74.13
42105;BME280;70664;51.472;5.712;2023-10-19T11:21:03;99009.28;;;15.76;74.24
42105;BME280;70664;51.472;5.712;2023-10-19T11:23:49;99013.53;;;15.77;74.39
42105;BME280;70664;51.472;5.712;2023-10-19T11:26:21;99022.22;;;15.76;74.52
42105;BME280;70664;51.472;5.712;2023-10-19T11:28:58;99012.69;;;15.76;74.58
42105;BME280;70664;51.472;5.712;2023-10-19T11:31:24;99011.88;;;15.76;74.80
42105;BME280;70664;51.472;5.712;2023-10-19T11:33:54;99010.97;;;15.77;74.56
42105;BME280;70664;51.472;5.712;2023-10-19T11:36:24;99004.91;;;15.76;74.28
42105;BME280;70664;51.472;5.712;2023-10-19T11:38:53;99009.19;;;15.77;74.60
42105;BME280;70664;51.472;5.712;2023-10-19T11:41:19;99009.19;;;15.77;74.61
42105;BME280;70664;51.472;5.712;2023-10-19T11:43:47;99002.28;;;15.78;74.76
42105;BME280;70664;51.472;5.712;2023-10-19T11:46:14;99000.59;;;15.77;75.17
42105;BME280;70664;51.472;5.712;2023-10-19T11:48:50;98998.00;;;15.77;74.90
42105;BME280;70664;51.472;5.712;2023-10-19T11:51:16;98997.63;;;15.84;75.67
42105;BME280;70664;51.472;5.712;2023-10-19T11:53:42;98996.94;;;15.81;75.73
42105;BME280;70664;51.472;5.712;2023-10-19T11:56:10;98986.59;;;15.81;75.96
42105;BME280;70664;51.472;5.712;2023-10-19T11:58:38;98978.72;;;15.82;75.64
42105;BME280;70664;51.472;5.712;2023-10-19T12:01:08;98970.94;;;15.82;75.44
42105;BME280;70664;51.472;5.712;2023-10-19T12:03:38;98970.88;;;15.84;75.46
42105;BME280;70664;51.472;5.712;2023-10-19T12:06:07;98978.56;;;15.85;75.36
42105;BME280;70664;51.472;5.712;2023-10-19T12:08:34;98984.41;;;15.91;75.35
42105;BME280;70664;51.472;5.712;2023-10-19T12:11:02;98972.22;;;15.93;75.06
42105;BME280;70664;51.472;5.712;2023-10-19T12:13:30;98979.84;;;15.96;74.99
42105;BME280;70664;51.472;5.712;2023-10-19T12:15:57;98975.56;;;15.95;75.32
42105;BME280;70664;51.472;5.712;2023-10-19T12:18:24;98976.34;;;15.97;75.48
42105;BME280;70664;51.472;5.712;2023-10-19T12:20:54;98967.66;;;15.98;74.96
42105;BME280;70664;51.472;5.712;2023-10-19T12:23:26;98968.47;;;15.98;74.93
42105;BME280;70664;51.472;5.712;2023-10-19T12:25:52;98969.41;;;15.97;74.97
42105;BME280;70664;51.472;5.712;2023-10-19T12:28:18;98971.84;;;16.00;74.81
42105;BME280;70664;51.472;5.712;2023-10-19T12:30:44;98973.59;;;16.00;74.36
42105;BME280;70664;51.472;5.712;2023-10-19T12:33:10;98970.09;;;16.01;74.67
42105;BME280;70664;51.472;5.712;2023-10-19T12:35:41;98965.75;;;16.01;74.22
42105;BME280;70664;51.472;5.712;2023-10-19T12:38:14;98955.38;;;16.01;74.26
42105;BME280;70664;51.472;5.712;2023-10-19T12:40:48;98960.56;;;16.01;74.36
42105;BME280;70664;51.472;5.712;2023-10-19T12:43:15;98962.22;;;16.02;74.28
42105;BME280;70664;51.472;5.712;2023-10-19T12:45:42;98957.03;;;16.02;74.23
42105;BME280;70664;51.472;5.712;2023-10-19T12:48:09;98953.63;;;16.02;74.03
42105;BME280;70664;51.472;5.712;2023-10-19T12:50:37;98958.72;;;16.03;74.14
42105;BME280;70664;51.472;5.712;2023-10-19T12:53:04;98949.19;;;16.04;73.62
42105;BME280;70664;51.472;5.712;2023-10-19T12:55:29;98952.63;;;16.05;73.59
42105;BME280;70664;51.472;5.712;2023-10-19T12:57:57;98949.19;;;16.04;73.68
42105;BME280;70664;51.472;5.712;2023-10-19T13:00:25;98946.59;;;16.04;73.54
42105;BME280;70664;51.472;5.712;2023-10-19T13:02:55;98945.69;;;16.05;73.36
42105;BME280;70664;51.472;5.712;2023-10-19T13:05:32;98934.47;;;16.05;73.17
42105;BME280;70664;51.472;5.712;2023-10-19T13:07:58;98937.06;;;16.05;73.48
42105;BME280;70664;51.472;5.712;2023-10-19T13:10:35;98936.16;;;16.06;73.17
42105;BME280;70664;51.472;5.712;2023-10-19T13:13:05;98937.00;;;16.06;73.19
42105;BME280;70664;51.472;5.712;2023-10-19T13:15:35;98931.81;;;16.06;73.16
42105;BME280;70664;51.472;5.712;2023-10-19T13:18:02;98928.38;;;16.06;73.10
42105;BME280;70664;51.472;5.712;2023-10-19T13:20:29;98928.28;;;16.07;72.91
42105;BME280;70664;51.472;5.712;2023-10-19T13:23:07;98929.16;;;16.08;72.81
42105;BME280;70664;51.472;5.712;2023-10-19T13:25:37;98926.56;;;16.08;72.53
42105;BME280;70664;51.472;5.712;2023-10-19T13:28:27;98919.59;;;16.08;73.04